createdAt,value
2019-06-20T00:00:50.768Z,99226.48
2019-06-20T00:03:20.628Z,99225.10
2019-06-20T00:05:50.352Z,99225.27
2019-06-20T00:08:19.697Z,99232.94
2019-06-20T00:10:49.063Z,99233.51
2019-06-20T00:13:19.009Z,99236.08
2019-06-20T00:15:48.325Z,99240.36
2019-06-20T00:18:17.887Z,99248.23
2019-06-20T00:20:51.942Z,99253.44
2019-06-20T00:23:25.669Z,99257.16
2019-06-20T00:25:59.404Z,99265.09
2019-06-20T00:28:34.474Z,99268.14
2019-06-20T00:31:08.273Z,99267.82
2019-06-20T00:33:41.402Z,99261.91
2019-06-20T00:36:13.919Z,99259.58
2019-06-20T00:39:00.613Z,99267.76
2019-06-20T00:41:38.591Z,99265.31
2019-06-20T00:44:13.914Z,99264.86
2019-06-20T00:46:47.828Z,99251.94
2019-06-20T00:49:21.411Z,99253.34
2019-06-20T00:51:55.077Z,99260.77
2019-06-20T00:54:50.330Z,99263.55
2019-06-20T00:57:22.591Z,99274.63
2019-06-20T00:59:55.685Z,99287.78
2019-06-20T01:02:28.888Z,99292.38
2019-06-20T01:05:01.813Z,99295.21
2019-06-20T01:07:36.681Z,99301.43
2019-06-20T01:10:12.046Z,99295.87
2019-06-20T01:12:48.350Z,99297.23
2019-06-20T01:15:24.125Z,99298.91
2019-06-20T01:17:57.251Z,99292.84
2019-06-20T01:20:37.932Z,99294.41
2019-06-20T01:23:15.390Z,99289.78
2019-06-20T01:25:51.059Z,99290.67
2019-06-20T01:28:44.017Z,99289.22
2019-06-20T01:31:18.790Z,99289.71
2019-06-20T01:33:55.507Z,99296.34
2019-06-20T01:39:49.677Z,99279.38
2019-06-20T01:42:23.913Z,99311.34
2019-06-20T01:45:00.906Z,99316.81
2019-06-20T01:47:36.214Z,99322.86
2019-06-20T01:50:08.253Z,99324.92
2019-06-20T01:52:54.400Z,99332.37
2019-06-20T01:55:28.205Z,99331.70
2019-06-20T01:58:03.998Z,99334.30
2019-06-20T02:00:51.852Z,99348.60
2019-06-20T02:03:27.567Z,99354.48
2019-06-20T02:06:01.832Z,99354.74
2019-06-20T02:08:36.558Z,99348.67
2019-06-20T02:11:12.494Z,99346.66
2019-06-20T02:13:43.542Z,99345.37
2019-06-20T02:16:17.326Z,99344.19
2019-06-20T02:18:51.069Z,99348.78
2019-06-20T02:21:25.433Z,99343.78
2019-06-20T02:24:06.362Z,99355.72
2019-06-20T02:26:35.706Z,99355.29
2019-06-20T02:32:34.161Z,99354.67
2019-06-20T02:35:03.605Z,99357.97
2019-06-20T02:37:33.306Z,99361.00
2019-06-20T02:40:02.679Z,99358.72
2019-06-20T02:42:32.067Z,99366.14
2019-06-20T02:45:01.498Z,99373.98
2019-06-20T02:47:30.942Z,99376.30
2019-06-20T02:50:00.372Z,99383.07
2019-06-20T02:52:30.093Z,99388.78
2019-06-20T02:54:59.490Z,99391.78
2019-06-20T02:57:28.884Z,99395.52
2019-06-20T02:59:58.243Z,99396.50
2019-06-20T03:02:27.645Z,99405.54
2019-06-20T03:04:57.123Z,99410.83
2019-06-20T03:07:26.566Z,99411.43
2019-06-20T03:09:56.338Z,99414.73
2019-06-20T03:12:25.821Z,99418.16
2019-06-20T03:14:55.619Z,99419.27
2019-06-20T03:17:25.650Z,99424.30
2019-06-20T03:19:55.066Z,99424.23
2019-06-20T03:22:24.428Z,99428.05
2019-06-20T03:24:55.118Z,99432.20
2019-06-20T03:27:24.437Z,99434.66
2019-06-20T03:29:54.385Z,99420.06
2019-06-20T03:32:23.800Z,99422.97
2019-06-20T03:34:53.192Z,99416.15
2019-06-20T03:37:22.543Z,99417.09
2019-06-20T03:39:52.391Z,99413.89
2019-06-20T03:42:22.316Z,99412.13
2019-06-20T03:45:01.685Z,99408.36
2019-06-20T03:47:22.889Z,99399.39
2019-06-20T03:49:52.212Z,99404.64
2019-06-20T03:52:21.548Z,99407.78
2019-06-20T03:54:51.562Z,99411.38
2019-06-20T03:57:21.025Z,99430.20
2019-06-20T03:59:50.406Z,99389.68
2019-06-20T04:02:19.816Z,99431.25
2019-06-20T04:04:50.578Z,99428.58
2019-06-20T04:07:19.983Z,99429.21
2019-06-20T04:09:49.356Z,99432.72
2019-06-20T04:12:19.482Z,99426.91
2019-06-20T04:14:49.349Z,99424.39
2019-06-20T04:17:19.169Z,99428.62
2019-06-20T04:19:48.465Z,99429.73
2019-06-20T04:22:17.912Z,99429.81
2019-06-20T04:24:47.573Z,99432.27
2019-06-20T04:27:17.006Z,99397.34
2019-06-20T04:29:46.744Z,99439.70
2019-06-20T04:32:17.244Z,99441.55
2019-06-20T04:34:46.685Z,99445.23
2019-06-20T04:37:16.155Z,99438.44
2019-06-20T04:39:45.513Z,99440.70
2019-06-20T04:42:18.616Z,99440.70
2019-06-20T04:44:47.328Z,99445.41
2019-06-20T04:47:19.008Z,99445.27
2019-06-20T04:49:48.373Z,99437.67
2019-06-20T04:52:17.915Z,99438.55
2019-06-20T04:54:47.809Z,99429.58
2019-06-20T04:57:17.376Z,99424.47
2019-06-20T04:59:48.414Z,99428.09
2019-06-20T05:02:19.809Z,99424.48
2019-06-20T05:04:49.532Z,99432.98
2019-06-20T05:07:21.107Z,99435.50
2019-06-20T05:09:50.525Z,99437.61
2019-06-20T05:12:20.459Z,99449.38
2019-06-20T05:14:50.898Z,99452.05
2019-06-20T05:17:30.981Z,99462.86
2019-06-20T05:20:03.173Z,99461.45
2019-06-20T05:26:02.548Z,99474.17
2019-06-20T05:28:45.380Z,99469.50
2019-06-20T05:34:21.356Z,99457.78
2019-06-20T05:36:50.825Z,99456.88
2019-06-20T05:39:20.738Z,99452.80
2019-06-20T05:41:50.420Z,99444.52
2019-06-20T05:44:22.745Z,99444.52
2019-06-20T05:47:08.533Z,99444.09
2019-06-20T05:49:24.952Z,99444.09
2019-06-20T05:51:54.865Z,99451.58
2019-06-20T05:54:27.073Z,99451.20
2019-06-20T05:56:56.978Z,99455.88
2019-06-20T05:59:48.653Z,99459.09
2019-06-20T06:02:18.839Z,99459.09
2019-06-20T06:04:50.853Z,99470.86
2019-06-20T06:11:03.440Z,99485.13
2019-06-20T06:13:44.712Z,99492.06
2019-06-20T06:16:26.198Z,99502.05
2019-06-20T06:18:58.363Z,99508.11
2019-06-20T06:21:28.280Z,99510.46
2019-06-20T06:24:00.516Z,99510.46
2019-06-20T06:26:29.912Z,99512.72
2019-06-20T06:28:59.194Z,99511.31
2019-06-20T06:31:28.436Z,99515.60
2019-06-20T06:33:57.685Z,99508.20
2019-06-20T06:36:27.251Z,99518.44
2019-06-20T06:38:56.569Z,99520.29
2019-06-20T06:41:25.774Z,99523.64
2019-06-20T06:43:55.331Z,99517.30
2019-06-20T06:46:24.594Z,99520.84
2019-06-20T06:48:53.860Z,99519.86
2019-06-20T06:51:23.157Z,99533.42
2019-06-20T06:53:52.861Z,99544.35
2019-06-20T06:56:22.148Z,99527.70
2019-06-20T06:58:51.436Z,99538.59
2019-06-20T07:01:20.769Z,99531.56
2019-06-20T07:03:50.046Z,99540.53
2019-06-20T07:06:19.361Z,99535.66
2019-06-20T07:08:48.721Z,99545.63
2019-06-20T07:11:17.974Z,99545.38
2019-06-20T07:13:47.210Z,99552.25
2019-06-20T07:16:16.495Z,99560.70
2019-06-20T07:18:45.694Z,99569.42
2019-06-20T07:21:14.956Z,99560.96
2019-06-20T07:23:44.265Z,99581.08
2019-06-20T07:26:13.561Z,99570.81
2019-06-20T07:28:42.777Z,99563.58
2019-06-20T07:31:12.051Z,99557.55
2019-06-20T07:33:41.291Z,99566.89
2019-06-20T07:36:10.574Z,99566.89
2019-06-20T07:38:39.788Z,99566.56
2019-06-20T07:41:09.740Z,99573.26
2019-06-20T07:43:39.026Z,99569.88
2019-06-20T07:46:08.305Z,99568.09
2019-06-20T07:48:37.566Z,99569.13
2019-06-20T07:51:06.815Z,99569.13
2019-06-20T07:53:36.048Z,99565.30
2019-06-20T07:56:05.265Z,99569.16
2019-06-20T07:58:34.555Z,99576.27
2019-06-20T08:01:04.889Z,99582.58
2019-06-20T08:03:37.738Z,99576.88
2019-06-20T08:06:07.103Z,99578.94
2019-06-20T08:44:37.718Z,99628.16
2019-06-20T08:47:06.937Z,99626.14
2019-06-20T08:49:36.237Z,99628.17
2019-06-20T08:52:05.965Z,99626.66
2019-06-20T08:54:35.271Z,99618.35
2019-06-20T08:57:06.918Z,99625.05
2019-06-20T08:59:36.298Z,99616.06
2019-06-20T09:04:35.451Z,99614.34
2019-06-20T09:09:34.861Z,99634.67
2019-06-20T09:12:05.107Z,99635.87
2019-06-20T09:14:34.906Z,99640.63
2019-06-20T09:17:04.429Z,99652.64
2019-06-20T09:19:36.591Z,99654.94
2019-06-20T09:22:06.093Z,99656.02
2019-06-20T09:24:35.517Z,99654.59
2019-06-20T09:27:04.996Z,99658.33
2019-06-20T09:29:42.056Z,99667.68
2019-06-20T09:32:12.792Z,99669.91
2019-06-20T09:34:42.329Z,99674.19
2019-06-20T09:37:15.976Z,99663.64
2019-06-20T09:39:47.134Z,99663.37
2019-06-20T09:42:16.962Z,99659.84
2019-06-20T09:44:58.736Z,99676.89
2019-06-20T09:47:28.185Z,99677.31
2019-06-20T09:49:59.042Z,99663.23
2019-06-20T09:52:28.917Z,99670.97
2019-06-20T09:55:00.574Z,99666.41
2019-06-20T09:57:29.995Z,99660.06
2019-06-20T10:00:09.676Z,99668.66
2019-06-20T10:02:30.890Z,99672.33
2019-06-20T10:05:00.279Z,99677.52
2019-06-20T10:07:30.049Z,99669.01
2019-06-20T10:10:01.676Z,99675.55
2019-06-20T10:12:31.100Z,99675.39
2019-06-20T10:15:00.936Z,99672.84
2019-06-20T10:17:30.254Z,99672.59
2019-06-20T10:20:00.870Z,99672.47
2019-06-20T10:22:30.278Z,99668.30
2019-06-20T10:28:28.663Z,99677.45
2019-06-20T10:30:58.507Z,99667.28
2019-06-20T10:33:27.903Z,99677.14
2019-06-20T10:35:57.689Z,99686.27
2019-06-20T10:38:27.467Z,99684.45
2019-06-20T10:40:59.894Z,99691.48
2019-06-20T10:43:27.701Z,99684.91
2019-06-20T10:45:57.274Z,99680.00
2019-06-20T10:48:26.576Z,99677.34
2019-06-20T10:50:57.765Z,99684.20
2019-06-20T10:53:27.055Z,99672.62
2019-06-20T10:55:56.328Z,99669.05
2019-06-20T10:58:25.660Z,99681.61
2019-06-20T11:00:55.203Z,99680.33
2019-06-20T11:03:24.412Z,99689.72
2019-06-20T11:05:53.647Z,99684.12
2019-06-20T11:08:23.153Z,99684.38
2019-06-20T11:10:52.454Z,99688.55
2019-06-20T11:13:21.688Z,99687.15
2019-06-20T11:15:50.957Z,99669.03
2019-06-20T11:18:20.204Z,99661.45
2019-06-20T11:20:49.471Z,99662.14
2019-06-20T11:23:18.703Z,99661.76
2019-06-20T11:25:48.392Z,99670.60
2019-06-20T11:28:17.708Z,99670.27
2019-06-20T11:30:58.136Z,99665.45
2019-06-20T11:33:17.959Z,99670.28
2019-06-20T11:35:48.002Z,99665.37
2019-06-20T11:38:17.262Z,99662.75
2019-06-20T11:40:48.119Z,99662.78
2019-06-20T11:43:17.453Z,99659.61
2019-06-20T11:45:47.228Z,99670.31
2019-06-20T11:48:16.516Z,99669.92
2019-06-20T11:50:46.640Z,99672.81
2019-06-20T11:53:16.158Z,99685.88
2019-06-20T11:55:45.420Z,99671.05
2019-06-20T11:58:14.726Z,99667.78
2019-06-20T12:00:44.074Z,99653.25
2019-06-20T12:03:13.370Z,99645.56
2019-06-20T12:05:43.259Z,99625.80
2019-06-20T12:08:12.883Z,99626.34
2019-06-20T12:10:43.147Z,99611.58
2019-06-20T12:13:12.456Z,99597.11
2019-06-20T12:15:42.800Z,99582.80
2019-06-20T12:18:12.259Z,99564.56
2019-06-20T12:20:42.843Z,99544.74
2019-06-20T12:23:12.362Z,99532.84
2019-06-20T12:25:42.663Z,99529.11
2019-06-20T12:28:12.431Z,99524.06
2019-06-20T12:30:43.483Z,99508.77
2019-06-20T12:33:12.857Z,99494.16
2019-06-20T12:35:42.779Z,99488.41
2019-06-20T12:38:15.060Z,99497.02
2019-06-20T12:40:44.097Z,99510.62
2019-06-20T12:43:13.857Z,99518.74
2019-06-20T12:45:43.151Z,99539.09
2019-06-20T12:48:12.426Z,99595.89
2019-06-20T12:50:42.983Z,99599.89
2019-06-20T12:53:12.525Z,99642.33
2019-06-20T12:55:42.455Z,99675.16
2019-06-20T12:58:11.907Z,99703.13
2019-06-20T13:00:42.998Z,99725.21
2019-06-20T13:03:12.275Z,99742.31
2019-06-20T13:05:43.269Z,99750.98
2019-06-20T13:08:13.727Z,99764.94
2019-06-20T13:10:44.161Z,99770.75
2019-06-20T13:13:13.511Z,99791.62
2019-06-20T13:15:42.761Z,99784.55
2019-06-20T13:18:14.389Z,99795.59
2019-06-20T13:20:44.227Z,99788.99
2019-06-20T13:23:13.893Z,99792.50
2019-06-20T13:25:44.464Z,99783.67
2019-06-20T13:28:14.262Z,99788.48
2019-06-20T13:30:47.386Z,99793.95
2019-06-20T13:33:15.052Z,99793.83
2019-06-20T13:35:45.374Z,99796.88
2019-06-20T13:38:14.779Z,99791.36
2019-06-20T13:40:45.394Z,99791.42
2019-06-20T13:43:14.965Z,99785.72
2019-06-20T13:45:44.840Z,99787.36
2019-06-20T13:48:15.287Z,99784.74
2019-06-20T13:50:45.344Z,99775.34
2019-06-20T13:53:14.723Z,99762.41
2019-06-20T13:55:45.738Z,99758.31
2019-06-20T13:58:23.496Z,99760.17
2019-06-20T14:00:57.313Z,99758.09
2019-06-20T14:03:33.187Z,99744.41
2019-06-20T14:06:15.132Z,99727.01
2019-06-20T14:08:50.312Z,99727.01
2019-06-20T14:11:21.354Z,99720.20
2019-06-20T14:13:54.457Z,99701.09
2019-06-20T14:16:28.563Z,99697.39
2019-06-20T14:19:08.434Z,99689.31
2019-06-20T14:21:42.523Z,99687.72
2019-06-20T14:24:20.240Z,99686.85
2019-06-20T14:26:56.118Z,99684.24
2019-06-20T14:29:32.767Z,99713.70
2019-06-20T14:32:18.795Z,99738.62
2019-06-20T14:34:43.661Z,99753.77
2019-06-20T14:37:19.713Z,99763.66
2019-06-20T14:39:51.052Z,99774.34
2019-06-20T14:42:26.701Z,99771.66
2019-06-20T14:45:00.692Z,99775.97
2019-06-20T14:47:31.671Z,99773.02
2019-06-20T14:50:04.111Z,99769.17
2019-06-20T14:52:39.613Z,99765.23
2019-06-20T14:55:15.199Z,99738.59
2019-06-20T14:57:48.564Z,99715.69
2019-06-20T15:00:25.421Z,99685.50
2019-06-20T15:02:58.660Z,99663.91
2019-06-20T15:05:34.727Z,99648.77
2019-06-20T15:08:07.613Z,99626.82
2019-06-20T15:11:04.087Z,99621.42
2019-06-20T15:13:35.846Z,99604.64
2019-06-20T15:16:06.426Z,99613.08
2019-06-20T15:18:41.200Z,99607.50
2019-06-20T15:21:12.963Z,99595.28
2019-06-20T15:23:43.289Z,99600.45
2019-06-20T15:26:17.342Z,99604.50
2019-06-20T15:28:55.133Z,99615.41
2019-06-20T15:31:35.716Z,99619.28
2019-06-20T15:34:08.713Z,99611.78
2019-06-20T15:36:42.020Z,99611.14
2019-06-20T15:39:18.619Z,99611.08
2019-06-20T15:41:50.060Z,99610.12
2019-06-20T15:44:23.623Z,99617.30
2019-06-20T15:46:53.359Z,99606.83
2019-06-20T15:49:28.762Z,99599.67
2019-06-20T15:51:59.811Z,99601.11
2019-06-20T15:54:33.404Z,99589.63
2019-06-20T15:57:06.586Z,99575.38
2019-06-20T15:59:42.103Z,99573.84
2019-06-20T16:02:14.294Z,99575.73
2019-06-20T16:04:46.587Z,99576.05
2019-06-20T16:07:17.616Z,99576.59
2019-06-20T16:09:50.268Z,99579.63
2019-06-20T16:12:22.642Z,99579.63
2019-06-20T16:14:55.458Z,99578.17
2019-06-20T16:17:28.088Z,99574.23
2019-06-20T16:20:05.762Z,99577.23
2019-06-20T16:22:37.421Z,99583.34
2019-06-20T16:25:09.462Z,99581.99
2019-06-20T16:27:42.009Z,99584.13
2019-06-20T16:30:22.698Z,99584.13
2019-06-20T16:32:55.367Z,99577.34
2019-06-20T16:35:28.299Z,99576.95
2019-06-20T16:38:00.651Z,99588.44
2019-06-20T16:40:44.181Z,99588.44
2019-06-20T16:43:16.335Z,99589.23
2019-06-20T16:45:46.783Z,99587.30
2019-06-20T16:48:21.653Z,99586.75
2019-06-20T16:51:08.171Z,99587.70
2019-06-20T16:53:52.617Z,99588.20
2019-06-20T16:59:46.679Z,99589.27
2019-06-20T17:02:30.895Z,99606.08
2019-06-20T17:05:04.568Z,99608.83
2019-06-20T17:13:25.383Z,99630.70
2019-06-20T17:15:54.822Z,99624.19
2019-06-20T17:18:25.793Z,99619.89
2019-06-20T17:20:56.678Z,99629.03
2019-06-20T17:31:23.591Z,99624.00
2019-06-20T17:40:02.829Z,99634.38
2019-06-20T17:42:38.418Z,99631.53
2019-06-20T17:45:10.096Z,99634.38
2019-06-20T17:47:40.846Z,99634.84
2019-06-20T17:50:11.005Z,99636.06
2019-06-20T17:52:51.781Z,99641.30
2019-06-20T17:55:22.489Z,99641.30
2019-06-20T17:57:55.912Z,99636.02
2019-06-20T18:00:26.572Z,99637.30
2019-06-20T18:05:37.248Z,99649.16
2019-06-20T18:08:15.098Z,99648.11
2019-06-20T18:22:14.433Z,99674.53
2019-06-20T18:24:44.304Z,99668.20
2019-06-20T18:27:14.446Z,99674.61
2019-06-20T18:29:47.991Z,99693.09
2019-06-20T18:32:17.523Z,99704.57
2019-06-20T18:35:05.289Z,99718.11
2019-06-20T18:40:03.075Z,99699.72
2019-06-20T19:52:06.325Z,99784.61
2019-06-20T19:54:36.130Z,99794.98
2019-06-20T20:00:46.305Z,99794.86
2019-06-20T20:03:15.955Z,99796.20
2019-06-20T20:05:45.676Z,99802.55
2019-06-20T20:08:20.170Z,99806.06
2019-06-20T20:16:12.698Z,99818.66
2019-06-20T20:21:12.231Z,99827.98
2019-06-20T20:23:41.723Z,99833.36
2019-06-20T20:26:11.286Z,99834.41
2019-06-20T20:28:40.530Z,99831.59
2019-06-20T20:31:09.938Z,99835.94
2019-06-20T20:33:41.926Z,99847.19
2019-06-20T20:36:23.923Z,99844.44
2019-06-20T20:38:42.858Z,99848.71
2019-06-20T20:41:12.583Z,99847.81
2019-06-20T20:43:42.313Z,99851.07
2019-06-20T20:46:11.627Z,99854.01
2019-06-20T20:48:43.265Z,99859.68
2019-06-20T20:51:13.139Z,99861.17
2019-06-20T20:53:45.337Z,99867.57
2019-06-20T20:56:20.024Z,99821.65
2019-06-20T20:58:49.681Z,99876.38
2019-06-20T21:01:28.921Z,99889.23
2019-06-20T21:03:58.867Z,99900.30
2019-06-20T21:06:28.365Z,99912.97
2019-06-20T21:08:57.746Z,99918.73
2019-06-20T21:11:27.531Z,99920.95
2019-06-20T21:13:56.888Z,99925.52
2019-06-20T21:16:27.375Z,99933.94
2019-06-20T21:18:57.181Z,99940.34
2019-06-20T21:21:26.832Z,99945.64
2019-06-20T21:23:56.462Z,99946.50
2019-06-20T21:26:26.145Z,99947.42
2019-06-20T21:28:55.859Z,99944.61
2019-06-20T21:31:25.560Z,99951.12
2019-06-20T21:33:54.818Z,99957.07
2019-06-20T21:36:24.341Z,99961.28
2019-06-20T21:38:55.596Z,99963.41
2019-06-20T21:41:25.369Z,99975.17
2019-06-20T21:43:54.713Z,99976.45
2019-06-20T21:46:24.080Z,99979.19
2019-06-20T21:48:53.381Z,99979.02
2019-06-20T21:51:23.078Z,99978.56
2019-06-20T21:53:52.648Z,99980.52
2019-06-20T21:56:21.947Z,99994.59
2019-06-20T21:58:51.295Z,99998.70
2019-06-20T22:01:20.749Z,100006.03
2019-06-20T22:03:50.111Z,99997.36
2019-06-20T22:06:23.721Z,99997.48
2019-06-20T22:08:50.417Z,100001.86
2019-06-20T22:11:19.685Z,100004.28
2019-06-20T22:13:48.924Z,100018.14
2019-06-20T22:16:18.473Z,100024.05
2019-06-20T22:18:47.730Z,100030.13
2019-06-20T22:21:16.969Z,100031.05
2019-06-20T22:23:49.149Z,100030.75
2019-06-20T22:26:18.436Z,100008.64
2019-06-20T22:28:47.719Z,100048.84
2019-06-20T22:31:17.009Z,100056.39
2019-06-20T22:33:46.278Z,100054.97
2019-06-20T22:36:15.604Z,100049.75
2019-06-20T22:38:45.354Z,100049.42
2019-06-20T22:41:14.572Z,100052.56
2019-06-20T22:43:43.900Z,100043.50
2019-06-20T22:46:13.414Z,100038.98
2019-06-20T22:48:42.776Z,100034.61
2019-06-20T22:51:13.823Z,100038.17
2019-06-20T22:53:43.628Z,100041.94
2019-06-20T22:56:12.852Z,100046.56
2019-06-20T22:58:42.201Z,100042.82
2019-06-20T23:01:11.443Z,100046.19
2019-06-20T23:03:40.807Z,100051.30
2019-06-20T23:06:10.049Z,100057.39
2019-06-20T23:08:39.322Z,100053.20
2019-06-20T23:11:08.642Z,100053.48
2019-06-20T23:13:38.181Z,100050.19
2019-06-20T23:16:07.397Z,100050.28
2019-06-20T23:18:36.663Z,100051.31
2019-06-20T23:21:05.954Z,100038.78
2019-06-20T23:23:35.231Z,100037.96
2019-06-20T23:26:06.162Z,100044.56
2019-06-20T23:28:35.443Z,100039.72
2019-06-20T23:31:04.693Z,100037.26
2019-06-20T23:33:34.018Z,100040.63
2019-06-20T23:36:03.278Z,100039.92
2019-06-20T23:38:32.538Z,100038.28
2019-06-20T23:41:01.855Z,100029.86
2019-06-20T23:43:31.107Z,100018.09
2019-06-20T23:46:00.355Z,100008.02
2019-06-20T23:48:29.876Z,99996.38
2019-06-20T23:50:59.754Z,99992.81
2019-06-20T23:53:29.036Z,99990.95
2019-06-20T23:55:58.640Z,99988.58
2019-06-20T23:58:27.909Z,99989.64
